createdAt,value
2022-11-17T00:01:19.828Z,98909.41
2022-11-17T00:04:04.709Z,98906.81
2022-11-17T00:06:49.604Z,98904.22
2022-11-17T00:09:34.762Z,98903.41
2022-11-17T00:12:22.752Z,98911.97
2022-11-17T00:15:08.657Z,98905.97
2022-11-17T00:17:53.848Z,98904.25
2022-11-17T00:20:39.802Z,98915.44
2022-11-17T00:23:24.618Z,98909.50
2022-11-17T00:26:09.623Z,98911.22
2022-11-17T00:29:00.597Z,98918.09
2022-11-17T00:31:45.456Z,98901.75
2022-11-17T00:34:30.400Z,98896.59
2022-11-17T00:37:16.275Z,98876.03
2022-11-17T00:40:01.588Z,98879.47
2022-11-17T00:42:46.910Z,98877.72
2022-11-17T00:45:32.296Z,98866.59
2022-11-17T00:48:17.379Z,98864.91
2022-11-17T00:51:04.276Z,98864.91
2022-11-17T00:53:49.280Z,98861.44
2022-11-17T00:56:34.366Z,98855.47
2022-11-17T00:59:19.809Z,98857.19
2022-11-17T01:02:05.010Z,98845.16
2022-11-17T01:04:49.905Z,98842.59
2022-11-17T01:07:34.876Z,98845.16
2022-11-17T01:10:20.371Z,98843.47
2022-11-17T01:13:05.245Z,98840.00
2022-11-17T01:15:50.320Z,98837.44
2022-11-17T01:18:36.594Z,98836.59
2022-11-17T01:21:24.244Z,98834.88
2022-11-17T01:24:11.186Z,98828.91
2022-11-17T01:26:56.127Z,98830.59
2022-11-17T01:29:40.994Z,98829.72
2022-11-17T01:32:25.822Z,98817.72
2022-11-17T01:35:10.676Z,98816.84
2022-11-17T01:37:55.623Z,98809.97
2022-11-17T01:40:40.551Z,98807.38
2022-11-17T01:43:48.565Z,98797.09
2022-11-17T01:46:39.360Z,98786.75
2022-11-17T01:49:28.440Z,98785.94
2022-11-17T01:52:14.485Z,98779.06
2022-11-17T01:55:00.449Z,98772.19
2022-11-17T01:57:54.107Z,98767.91
2022-11-17T02:00:40.672Z,98763.63
2022-11-17T02:03:27.109Z,98766.22
2022-11-17T02:06:16.950Z,98759.34
2022-11-17T02:09:03.757Z,98764.53
2022-11-17T02:11:49.160Z,98763.66
2022-11-17T02:14:35.228Z,98748.22
2022-11-17T02:17:22.239Z,98745.66
2022-11-17T02:20:19.602Z,98737.06
2022-11-17T02:23:23.385Z,98735.38
2022-11-17T02:26:34.356Z,98715.66
2022-11-17T02:29:29.657Z,98713.06
2022-11-17T02:32:21.655Z,98710.50
2022-11-17T02:35:15.025Z,98706.19
2022-11-17T02:38:32.361Z,98710.47
2022-11-17T02:41:21.539Z,98713.91
2022-11-17T02:44:10.516Z,98715.66
2022-11-17T02:47:04.865Z,98710.47
2022-11-17T02:50:00.838Z,98710.47
2022-11-17T02:52:45.834Z,98705.31
2022-11-17T02:55:35.043Z,98690.69
2022-11-17T02:58:21.292Z,98681.31
2022-11-17T03:01:28.229Z,98683.03
2022-11-17T03:04:37.823Z,98675.28
2022-11-17T03:07:39.858Z,98671.84
2022-11-17T03:10:35.336Z,98654.66
2022-11-17T03:13:55.430Z,98655.56
2022-11-17T03:17:10.231Z,98658.97
2022-11-17T03:20:08.222Z,98658.97
2022-11-17T03:22:58.692Z,98653.84
2022-11-17T03:25:49.260Z,98646.97
2022-11-17T03:28:34.970Z,98640.97
2022-11-17T03:31:24.232Z,98649.53
2022-11-17T03:34:15.263Z,98638.41
2022-11-17T03:37:03.437Z,98642.69
2022-11-17T03:39:55.153Z,98645.22
2022-11-17T03:42:47.416Z,98644.41
2022-11-17T03:45:35.673Z,98628.09
2022-11-17T03:48:27.304Z,98622.09
2022-11-17T03:51:19.194Z,98625.56
2022-11-17T03:54:05.241Z,98628.97
2022-11-17T03:57:12.063Z,98635.78
2022-11-17T04:00:04.815Z,98623.00
2022-11-17T04:02:55.709Z,98628.94
2022-11-17T04:05:40.798Z,98639.28
2022-11-17T04:08:26.625Z,98630.72
2022-11-17T04:11:11.402Z,98626.41
2022-11-17T04:13:56.475Z,98617.78
2022-11-17T04:16:42.144Z,98622.16
2022-11-17T04:19:28.098Z,98626.44
2022-11-17T04:22:13.615Z,98614.41
2022-11-17T04:24:58.557Z,98611.88
2022-11-17T04:27:43.430Z,98596.38
2022-11-17T04:30:28.468Z,98592.91
2022-11-17T04:33:13.515Z,98592.09
2022-11-17T04:35:58.758Z,98599.81
2022-11-17T04:38:46.114Z,98578.41
2022-11-17T04:41:31.299Z,98581.84
2022-11-17T04:44:17.593Z,98568.97
2022-11-17T04:47:02.489Z,98557.81
2022-11-17T04:49:47.434Z,98554.38
2022-11-17T04:52:32.344Z,98547.53
2022-11-17T04:55:17.200Z,98543.28
2022-11-17T04:58:02.468Z,98548.41
2022-11-17T05:00:47.304Z,98552.66
2022-11-17T05:03:34.207Z,98538.94
2022-11-17T05:06:25.491Z,98530.41
2022-11-17T05:09:12.643Z,98521.84
2022-11-17T05:11:57.969Z,98527.84
2022-11-17T05:14:43.142Z,98523.56
2022-11-17T05:17:28.061Z,98529.59
2022-11-17T05:20:12.840Z,98523.56
2022-11-17T05:23:02.497Z,98526.16
2022-11-17T05:25:53.461Z,98517.59
2022-11-17T05:28:38.603Z,98509.03
2022-11-17T05:31:25.209Z,98510.78
2022-11-17T05:34:12.681Z,98510.78
2022-11-17T05:36:57.746Z,98498.78
2022-11-17T05:39:43.095Z,98500.50
2022-11-17T05:42:27.905Z,98484.22
2022-11-17T05:45:12.651Z,98483.38
2022-11-17T05:47:57.493Z,98476.50
2022-11-17T05:50:42.261Z,98480.78
2022-11-17T05:53:29.475Z,98479.03
2022-11-17T05:56:27.883Z,98474.78
2022-11-17T05:59:27.705Z,98469.66
2022-11-17T06:02:22.642Z,98473.03
2022-11-17T06:05:09.427Z,98481.63
2022-11-17T06:07:55.282Z,98482.47
2022-11-17T06:10:40.304Z,98479.03
2022-11-17T06:13:25.970Z,98475.66
2022-11-17T06:16:16.746Z,98471.31
2022-11-17T06:19:18.649Z,98477.31
2022-11-17T06:22:12.089Z,98469.59
2022-11-17T06:24:59.180Z,98477.38
2022-11-17T06:27:46.120Z,98484.19
2022-11-17T06:30:32.293Z,98462.72
2022-11-17T06:33:18.496Z,98461.88
2022-11-17T06:36:07.012Z,98463.59
2022-11-17T06:38:51.954Z,98453.31
2022-11-17T06:41:37.147Z,98444.72
2022-11-17T06:44:22.374Z,98446.41
2022-11-17T06:47:07.802Z,98434.44
2022-11-17T06:49:52.799Z,98436.13
2022-11-17T06:52:38.202Z,98442.94
2022-11-17T06:55:23.600Z,98439.50
2022-11-17T06:58:09.660Z,98446.34
2022-11-17T07:01:00.591Z,98439.44
2022-11-17T07:03:46.111Z,98435.19
2022-11-17T07:06:31.175Z,98428.25
2022-11-17T07:09:16.129Z,98433.44
2022-11-17T07:12:01.560Z,98430.81
2022-11-17T07:14:46.455Z,98426.53
2022-11-17T07:17:31.926Z,98434.25
2022-11-17T07:20:17.750Z,98428.19
2022-11-17T07:23:02.816Z,98420.56
2022-11-17T07:25:48.093Z,98425.66
2022-11-17T07:28:35.016Z,98432.53
2022-11-17T07:31:20.751Z,98418.78
2022-11-17T07:34:06.354Z,98412.78
2022-11-17T07:36:51.329Z,98410.13
2022-11-17T07:39:37.067Z,98408.47
2022-11-17T07:42:22.207Z,98403.28
2022-11-17T07:45:08.305Z,98404.19
2022-11-17T07:47:58.716Z,98382.66
2022-11-17T07:50:43.974Z,98395.53
2022-11-17T07:53:29.652Z,98386.91
2022-11-17T07:56:14.879Z,98376.56
2022-11-17T07:58:59.816Z,98380.00
2022-11-17T08:01:45.133Z,98376.50
2022-11-17T08:04:30.531Z,98393.63
2022-11-17T08:07:15.505Z,98384.16
2022-11-17T08:10:00.771Z,98381.59
2022-11-17T08:12:46.397Z,98386.78
2022-11-17T08:15:31.825Z,98399.66
2022-11-17T08:18:17.225Z,98409.06
2022-11-17T08:21:04.515Z,98413.38
2022-11-17T08:23:50.882Z,98413.47
2022-11-17T08:26:36.358Z,98422.09
2022-11-17T08:29:21.308Z,98420.44
2022-11-17T08:32:06.244Z,98429.91
2022-11-17T08:34:51.256Z,98435.94
2022-11-17T08:37:40.559Z,98431.66
2022-11-17T08:40:25.690Z,98445.41
2022-11-17T08:43:10.944Z,98447.16
2022-11-17T08:45:55.921Z,98453.13
2022-11-17T08:48:41.092Z,98449.66
2022-11-17T08:51:26.651Z,98447.97
2022-11-17T08:54:12.180Z,98450.56
2022-11-17T08:56:58.422Z,98456.50
2022-11-17T08:59:43.473Z,98453.94
2022-11-17T09:02:28.915Z,98463.38
2022-11-17T09:05:14.091Z,98467.66
2022-11-17T09:08:10.671Z,98476.25
2022-11-17T09:11:10.842Z,98492.56
2022-11-17T09:13:56.355Z,98484.81
2022-11-17T09:16:41.376Z,98483.06
2022-11-17T09:19:26.782Z,98481.25
2022-11-17T09:22:12.129Z,98482.09
2022-11-17T09:24:57.365Z,98482.91
2022-11-17T09:27:42.460Z,98481.19
2022-11-17T09:30:27.319Z,98482.03
2022-11-17T09:33:12.191Z,98479.38
2022-11-17T09:35:57.382Z,98486.34
2022-11-17T09:38:43.377Z,98477.72
2022-11-17T09:41:34.289Z,98482.00
2022-11-17T09:44:44.170Z,98478.63
2022-11-17T09:47:29.458Z,98487.13
2022-11-17T09:50:27.952Z,98487.97
2022-11-17T09:53:39.798Z,98484.56
2022-11-17T09:56:27.162Z,98490.56
2022-11-17T09:59:15.428Z,98495.66
2022-11-17T10:02:00.418Z,98493.91
2022-11-17T10:04:46.067Z,98485.31
2022-11-17T10:07:33.003Z,98499.09
2022-11-17T10:10:45.173Z,98506.78
2022-11-17T10:13:33.646Z,98500.81
2022-11-17T10:16:19.130Z,98512.81
2022-11-17T10:19:24.102Z,98522.28
2022-11-17T10:22:20.991Z,98531.72
2022-11-17T10:25:21.742Z,98529.94
2022-11-17T10:28:09.283Z,98528.22
2022-11-17T10:30:57.105Z,98524.66
2022-11-17T10:33:47.008Z,98528.09
2022-11-17T10:36:33.209Z,98532.44
2022-11-17T10:39:50.432Z,98528.09
2022-11-17T10:42:36.650Z,98541.81
2022-11-17T10:45:22.670Z,98533.19
2022-11-17T10:48:29.226Z,98541.78
2022-11-17T10:51:17.735Z,98546.06
2022-11-17T10:54:20.985Z,98542.56
2022-11-17T10:57:25.282Z,98543.34
2022-11-17T11:00:23.663Z,98548.53
2022-11-17T11:03:18.343Z,98553.66
2022-11-17T11:06:07.468Z,98554.56
2022-11-17T11:09:00.908Z,98554.50
2022-11-17T11:11:53.034Z,98555.25
2022-11-17T11:14:48.293Z,98552.72
2022-11-17T11:17:33.260Z,98549.19
2022-11-17T11:20:30.167Z,98545.72
2022-11-17T11:23:27.512Z,98545.66
2022-11-17T11:26:26.487Z,98543.03
2022-11-17T11:29:19.959Z,98541.25
2022-11-17T11:32:23.282Z,98550.56
2022-11-17T11:35:26.557Z,98542.88
2022-11-17T11:38:37.831Z,98540.28
2022-11-17T11:41:41.481Z,98541.88
2022-11-17T11:44:51.544Z,98546.19
2022-11-17T11:47:55.350Z,98540.03
2022-11-17T11:51:03.358Z,98549.56
2022-11-17T11:53:55.724Z,98548.59
2022-11-17T11:56:43.381Z,98555.41
2022-11-17T11:59:40.668Z,98546.81
2022-11-17T12:02:56.025Z,98552.56
2022-11-17T12:06:00.595Z,98561.09
2022-11-17T12:08:55.035Z,98550.72
2022-11-17T12:11:41.407Z,98555.81
2022-11-17T12:14:29.536Z,98551.31
2022-11-17T12:17:14.548Z,98553.75
2022-11-17T12:20:04.596Z,98558.03
2022-11-17T12:23:18.920Z,98553.81
2022-11-17T12:26:04.460Z,98554.66
2022-11-17T12:28:49.475Z,98561.50
2022-11-17T12:31:45.306Z,98552.13
2022-11-17T12:34:35.406Z,98559.88
2022-11-17T12:37:22.298Z,98566.91
2022-11-17T12:40:08.716Z,98567.63
2022-11-17T12:43:16.254Z,98562.47
2022-11-17T12:46:05.190Z,98571.84
2022-11-17T12:49:20.200Z,98575.22
2022-11-17T12:52:15.372Z,98581.97
2022-11-17T12:55:08.730Z,98577.66
2022-11-17T12:58:09.186Z,98578.44
2022-11-17T13:01:15.894Z,98575.97
2022-11-17T13:04:13.526Z,98567.31
2022-11-17T13:07:03.356Z,98570.69
2022-11-17T13:09:59.260Z,98569.94
2022-11-17T13:12:44.492Z,98579.31
2022-11-17T13:15:29.480Z,98572.41
2022-11-17T13:18:23.252Z,98577.59
2022-11-17T13:21:26.759Z,98578.38
2022-11-17T13:24:12.017Z,98575.84
2022-11-17T13:27:03.479Z,98587.94
2022-11-17T13:29:49.228Z,98576.47
2022-11-17T13:32:34.381Z,98587.63
2022-11-17T13:35:28.423Z,98586.63
2022-11-17T13:38:22.154Z,98579.72
2022-11-17T13:41:07.459Z,98577.81
2022-11-17T13:43:53.864Z,98571.94
2022-11-17T13:46:38.944Z,98575.19
2022-11-17T13:49:39.370Z,98573.66
2022-11-17T13:52:39.172Z,98567.38
2022-11-17T13:55:28.191Z,98566.56
2022-11-17T13:58:42.709Z,98574.03
2022-11-17T14:01:29.135Z,98572.63
2022-11-17T14:04:23.087Z,98570.13
2022-11-17T14:07:10.870Z,98582.97
2022-11-17T14:10:12.616Z,98583.56
2022-11-17T14:13:00.847Z,98586.13
2022-11-17T14:15:53.783Z,98581.84
2022-11-17T14:18:39.060Z,98579.31
2022-11-17T14:21:24.354Z,98578.53
2022-11-17T14:24:13.255Z,98578.47
2022-11-17T14:26:59.078Z,98584.56
2022-11-17T14:29:45.943Z,98585.50
2022-11-17T14:32:30.822Z,98582.09
2022-11-17T14:38:01.684Z,98583.88
2022-11-17T14:40:49.593Z,98583.84
2022-11-17T14:43:34.985Z,98592.50
2022-11-17T14:46:25.828Z,98590.13
2022-11-17T14:49:11.042Z,98597.84
2022-11-17T14:51:55.979Z,98597.06
2022-11-17T14:54:40.988Z,98587.44
2022-11-17T14:57:26.319Z,98596.94
2022-11-17T15:00:15.835Z,98601.13
2022-11-17T15:03:04.636Z,98597.81
2022-11-17T15:05:49.558Z,98603.97
2022-11-17T15:08:35.754Z,98593.47
2022-11-17T15:11:20.893Z,98609.97
2022-11-17T15:14:05.840Z,98605.81
2022-11-17T15:16:50.746Z,98614.50
2022-11-17T15:19:36.245Z,98622.22
2022-11-17T15:22:21.760Z,98621.63
2022-11-17T15:25:07.936Z,98629.28
2022-11-17T15:27:53.106Z,98633.59
2022-11-17T15:30:38.534Z,98635.50
2022-11-17T15:33:24.614Z,98633.81
2022-11-17T15:36:12.274Z,98632.22
2022-11-17T15:38:57.670Z,98647.78
2022-11-17T15:41:42.918Z,98649.66
2022-11-17T15:44:28.898Z,98655.72
2022-11-17T15:47:14.110Z,98663.59
2022-11-17T15:49:59.495Z,98659.91
2022-11-17T15:55:50.986Z,98661.84
2022-11-17T15:58:36.387Z,98661.81
2022-11-17T16:01:24.407Z,98667.16
2022-11-17T16:04:11.798Z,98675.81
2022-11-17T16:06:57.355Z,98681.75
2022-11-17T16:09:44.949Z,98690.38
2022-11-17T16:12:33.987Z,98692.91
2022-11-17T16:15:18.877Z,98690.28
2022-11-17T16:18:04.444Z,98695.53
2022-11-17T16:20:50.269Z,98699.00
2022-11-17T16:23:49.069Z,98699.84
2022-11-17T16:26:34.267Z,98695.59
2022-11-17T16:29:19.713Z,98699.09
2022-11-17T16:32:05.457Z,98695.63
2022-11-17T16:34:50.849Z,98715.44
2022-11-17T16:37:36.484Z,98696.44
2022-11-17T16:40:22.761Z,98701.66
2022-11-17T16:43:11.228Z,98704.34
2022-11-17T16:45:58.826Z,98707.72
2022-11-17T16:48:49.154Z,98709.53
2022-11-17T16:51:35.057Z,98706.94
2022-11-17T16:54:21.281Z,98710.34
2022-11-17T16:57:07.252Z,98708.59
2022-11-17T16:59:53.488Z,98701.78
2022-11-17T17:02:38.602Z,98702.69
2022-11-17T17:05:25.145Z,98701.69
2022-11-17T17:08:10.415Z,98699.16
2022-11-17T17:11:00.645Z,98703.50
2022-11-17T17:13:47.359Z,98708.56
2022-11-17T17:16:34.652Z,98707.78
2022-11-17T17:19:20.122Z,98708.72
2022-11-17T17:22:05.486Z,98704.41
2022-11-17T17:24:51.378Z,98700.94
2022-11-17T17:27:36.945Z,98708.72
2022-11-17T17:30:22.261Z,98708.69
2022-11-17T17:33:08.350Z,98705.31
2022-11-17T17:35:53.810Z,98711.47
2022-11-17T17:38:38.733Z,98713.97
2022-11-17T17:41:26.212Z,98714.78
2022-11-17T17:44:19.329Z,98725.97
2022-11-17T17:47:04.223Z,98723.38
2022-11-17T17:49:49.535Z,98724.28
2022-11-17T17:52:34.777Z,98727.78
2022-11-17T17:55:19.665Z,98727.75
2022-11-17T17:58:05.415Z,98729.53
2022-11-17T18:00:50.642Z,98733.00
2022-11-17T18:03:36.130Z,98737.22
2022-11-17T18:06:22.466Z,98741.69
2022-11-17T18:09:09.725Z,98733.13
2022-11-17T18:11:54.929Z,98735.63
2022-11-17T18:14:39.712Z,98745.09
2022-11-17T18:17:24.958Z,98744.25
2022-11-17T18:20:10.436Z,98745.94
2022-11-17T18:22:56.515Z,98749.34
2022-11-17T18:25:41.603Z,98748.50
2022-11-17T18:28:26.827Z,98751.94
2022-11-17T18:31:12.505Z,98755.44
2022-11-17T18:34:00.325Z,98757.16
2022-11-17T18:36:45.345Z,98759.72
2022-11-17T18:39:30.808Z,98762.28
2022-11-17T18:42:15.688Z,98758.94
2022-11-17T18:45:00.615Z,98762.38
2022-11-17T18:47:45.512Z,98766.63
2022-11-17T18:50:30.719Z,98763.19
2022-11-17T18:53:16.610Z,98766.59
2022-11-17T18:56:10.139Z,98758.88
2022-11-17T18:58:55.019Z,98763.25
2022-11-17T19:01:42.597Z,98759.84
2022-11-17T19:04:28.020Z,98766.66
2022-11-17T19:07:13.138Z,98763.22
2022-11-17T19:09:58.816Z,98759.84
2022-11-17T19:12:44.117Z,98762.50
2022-11-17T19:15:29.762Z,98761.66
2022-11-17T19:18:19.249Z,98771.06
2022-11-17T19:21:07.459Z,98771.09
2022-11-17T19:23:54.018Z,98769.38
2022-11-17T19:26:39.407Z,98780.59
2022-11-17T19:29:24.407Z,98776.34
2022-11-17T19:32:09.859Z,98772.94
2022-11-17T19:35:00.325Z,98780.63
2022-11-17T19:37:52.194Z,98778.03
2022-11-17T19:40:37.244Z,98782.31
2022-11-17T19:43:22.581Z,98784.03
2022-11-17T19:46:10.521Z,98782.38
2022-11-17T19:48:57.410Z,98788.38
2022-11-17T19:51:42.538Z,98793.47
2022-11-17T19:54:27.934Z,98787.50
2022-11-17T19:57:13.411Z,98785.81
2022-11-17T19:59:58.522Z,98799.59
2022-11-17T20:02:43.339Z,98796.97
2022-11-17T20:05:30.821Z,98799.53
2022-11-17T20:08:16.280Z,98809.88
2022-11-17T20:11:10.090Z,98809.81
2022-11-17T20:13:55.962Z,98811.53
2022-11-17T20:16:41.352Z,98808.97
2022-11-17T20:19:26.808Z,98815.84
2022-11-17T20:22:12.191Z,98819.28
2022-11-17T20:25:03.071Z,98823.63
2022-11-17T20:27:48.803Z,98823.59
2022-11-17T20:30:37.655Z,98828.66
2022-11-17T20:33:22.706Z,98827.84
2022-11-17T20:36:09.625Z,98832.19
2022-11-17T20:38:57.560Z,98831.22
2022-11-17T20:41:42.663Z,98840.72
2022-11-17T20:44:28.126Z,98843.28
2022-11-17T20:47:13.593Z,98844.94
2022-11-17T20:49:59.172Z,98840.69
2022-11-17T20:52:44.574Z,98839.88
2022-11-17T20:55:29.584Z,98854.50
2022-11-17T20:58:15.086Z,98857.09
2022-11-17T21:01:13.881Z,98867.41
2022-11-17T21:03:59.336Z,98873.38
2022-11-17T21:06:44.957Z,98874.31
2022-11-17T21:09:29.986Z,98882.03
2022-11-17T21:12:15.297Z,98888.91
2022-11-17T21:15:01.088Z,98889.75
2022-11-17T21:17:46.775Z,98885.41
2022-11-17T21:20:32.894Z,98891.47
2022-11-17T21:23:18.187Z,98887.16
2022-11-17T21:26:14.218Z,98884.63
2022-11-17T21:29:05.926Z,98900.06
2022-11-17T21:31:51.583Z,98903.50
2022-11-17T21:34:36.996Z,98906.91
2022-11-17T21:37:22.308Z,98897.47
2022-11-17T21:40:07.857Z,98908.66
2022-11-17T21:42:53.060Z,98909.56
2022-11-17T21:45:38.131Z,98919.03
2022-11-17T21:48:23.217Z,98923.34
2022-11-17T21:51:24.361Z,98916.47
2022-11-17T21:54:09.991Z,98925.03
2022-11-17T21:56:55.571Z,98926.75
2022-11-17T21:59:40.883Z,98931.91
2022-11-17T22:02:26.076Z,98938.75
2022-11-17T22:05:11.674Z,98949.13
2022-11-17T22:07:56.394Z,98942.22
2022-11-17T22:10:42.024Z,98944.81
2022-11-17T22:13:27.070Z,98941.41
2022-11-17T22:16:13.870Z,98940.53
2022-11-17T22:18:59.391Z,98947.38
2022-11-17T22:21:45.661Z,98949.09
2022-11-17T22:24:30.700Z,98951.69
2022-11-17T22:27:16.109Z,98949.97
2022-11-17T22:30:01.090Z,98953.41
2022-11-17T22:32:46.564Z,98959.44
2022-11-17T22:35:31.418Z,98957.72
2022-11-17T22:38:17.079Z,98955.97
2022-11-17T22:41:03.801Z,98957.72
2022-11-17T22:43:53.482Z,98949.97
2022-11-17T22:46:38.641Z,98956.00
2022-11-17T22:49:23.974Z,98956.84
2022-11-17T22:52:12.215Z,98963.72
2022-11-17T22:54:58.966Z,98963.72
2022-11-17T22:57:44.329Z,98972.28
2022-11-17T23:00:29.596Z,98971.47
2022-11-17T23:03:15.247Z,98974.88
2022-11-17T23:06:04.537Z,98973.16
2022-11-17T23:08:50.426Z,98971.44
2022-11-17T23:11:38.237Z,98972.31
2022-11-17T23:14:23.693Z,98978.31
2022-11-17T23:17:09.276Z,98982.63
2022-11-17T23:19:54.647Z,98983.47
2022-11-17T23:22:39.920Z,98991.19
2022-11-17T23:25:25.443Z,98989.47
2022-11-17T23:28:10.378Z,98993.75
2022-11-17T23:31:04.035Z,98991.16
2022-11-17T23:33:49.082Z,98997.19
2022-11-17T23:36:34.429Z,98993.75
2022-11-17T23:39:20.035Z,99004.88
2022-11-17T23:42:05.888Z,99006.59
2022-11-17T23:44:50.881Z,99003.13
2022-11-17T23:47:36.328Z,99005.72
2022-11-17T23:50:21.553Z,99004.84
2022-11-17T23:53:07.013Z,99010.00
2022-11-17T23:55:56.903Z,99010.00
2022-11-17T23:58:42.780Z,99005.72
